Baugh, Oklahoma
Current Conditions -  °F | °C
As of 6:15 AM on Thursday 18 Dec 2014 (Local Time) from KOWP Reporting Station
Haze Haze  
Wind Chill: 38°   Ceiling: 200
Heat Index: 38°   Visibility: 1.2mi
Dew Point: 37°   Wind: 3mph
Humidity: 94%   Direction: 130°SE
Pressure: 30.15"   Gusts: NA
Location:  36.248°N, 96.4789°W
Report Text: KOWP 181215Z AUTO 13003KT 1 1/4SM BR OVC002 04/03 A3015 RMK AO2 T00360027
Loading
Personal Weather Stations






























Interactive Weather Map New forecast layout! Learn more

10-Day Weather Forecast

Advertisements
Track Severe Weather on mobile